createdAt,value
2019-03-06T00:00:22.371Z,4.2
2019-03-06T00:05:22.214Z,1.8
2019-03-06T00:10:16.671Z,4.1
2019-03-06T00:15:18.802Z,6.2
2019-03-06T00:20:16.923Z,12.9
2019-03-06T00:25:17.172Z,6.9
2019-03-06T00:30:17.468Z,3.5
2019-03-06T00:35:20.480Z,4.5
2019-03-06T00:40:32.160Z,2.8
2019-03-06T00:45:20.321Z,7.5
2019-03-06T00:50:52.239Z,22.3
2019-03-06T00:55:28.811Z,9.4
2019-03-06T01:00:18.483Z,8.9
2019-03-06T01:05:30.176Z,2.4
2019-03-06T01:10:17.049Z,2.8
2019-03-06T01:15:27.297Z,8.2
2019-03-06T01:20:23.613Z,7.7
2019-03-06T01:25:16.797Z,8
2019-03-06T01:30:27.104Z,6.8
2019-03-06T01:35:18.122Z,5.7
2019-03-06T01:40:41.202Z,6.6
2019-03-06T01:45:17.808Z,8.5
2019-03-06T01:50:22.519Z,7.6
2019-03-06T01:55:36.623Z,8.6
2019-03-06T02:00:22.004Z,7.2
2019-03-06T02:05:22.678Z,6.9
2019-03-06T02:10:30.316Z,5.8
2019-03-06T02:15:27.340Z,8.7
2019-03-06T02:20:17.098Z,8.4
2019-03-06T02:25:38.447Z,31.6
2019-03-06T02:30:17.824Z,8.7
2019-03-06T02:35:24.909Z,5.6
2019-03-06T02:40:18.503Z,15.1
2019-03-06T02:45:22.836Z,7.2
2019-03-06T02:50:32.383Z,8.3
2019-03-06T02:55:20.395Z,6.3
2019-03-06T03:00:17.728Z,12.3
2019-03-06T03:05:23.327Z,8.4
2019-03-06T03:10:17.780Z,11.1
2019-03-06T03:15:19.885Z,12.8
2019-03-06T03:20:21.877Z,10
2019-03-06T03:25:16.625Z,10.5
2019-03-06T03:30:20.289Z,8.8
2019-03-06T03:35:17.738Z,7.3
2019-03-06T03:40:22.218Z,13.3
2019-03-06T03:45:18.672Z,11.2
2019-03-06T03:50:22.114Z,10.1
2019-03-06T03:55:35.037Z,25.2
2019-03-06T04:00:20.483Z,12.2
2019-03-06T04:05:24.573Z,16.5
2019-03-06T04:10:27.023Z,13.5
2019-03-06T04:15:28.975Z,9.2
2019-03-06T04:20:17.463Z,13.3
2019-03-06T04:25:17.168Z,10.7
2019-03-06T04:30:16.667Z,15.8
2019-03-06T04:35:17.515Z,15.9
2019-03-06T04:40:17.578Z,13.9
2019-03-06T04:45:19.437Z,16.3
2019-03-06T04:50:32.655Z,12.3
2019-03-06T04:55:17.054Z,14.4
2019-03-06T05:00:18.556Z,15.1
2019-03-06T05:05:24.716Z,9.8
2019-03-06T05:10:27.703Z,23.2
2019-03-06T05:15:16.684Z,11.3
2019-03-06T05:20:18.353Z,12.1
2019-03-06T05:25:20.317Z,10.6
2019-03-06T05:30:32.326Z,14.8
2019-03-06T05:35:17.078Z,14.9
2019-03-06T05:40:19.917Z,10.1
2019-03-06T05:45:17.369Z,25.2
2019-03-06T05:50:22.451Z,20.3
2019-03-06T05:55:31.997Z,15.7
2019-03-06T06:00:30.565Z,11.7
2019-03-06T06:05:17.651Z,12.8
2019-03-06T06:10:22.862Z,17.6
2019-03-06T06:15:16.972Z,13.2
2019-03-06T06:20:37.366Z,21.8
2019-03-06T06:25:18.345Z,14.3
2019-03-06T06:30:32.643Z,12.1
2019-03-06T06:35:17.003Z,11.7
2019-03-06T06:40:35.793Z,11.4
2019-03-06T06:45:27.939Z,12.1
2019-03-06T06:50:18.531Z,17.4
2019-03-06T06:55:32.511Z,12.7
2019-03-06T07:00:20.080Z,14.6
2019-03-06T07:05:18.182Z,13.4
2019-03-06T07:10:37.655Z,16
2019-03-06T07:15:18.702Z,14.5
2019-03-06T07:20:27.186Z,16.4
2019-03-06T07:25:18.457Z,16.9
2019-03-06T07:30:21.974Z,16.1
2019-03-06T07:35:17.146Z,14.7
2019-03-06T07:40:17.642Z,14.6
2019-03-06T07:45:16.782Z,16.3
2019-03-06T07:50:16.813Z,16.1
2019-03-06T07:55:16.823Z,13
2019-03-06T08:00:16.953Z,13.9
2019-03-06T08:05:16.823Z,12.5
2019-03-06T08:10:27.220Z,13
2019-03-06T08:15:17.414Z,11
2019-03-06T08:20:17.971Z,10.8
2019-03-06T08:25:17.221Z,10.7
2019-03-06T08:30:16.955Z,11.3
2019-03-06T08:35:17.056Z,13.2
2019-03-06T08:40:32.279Z,10.9
2019-03-06T08:45:17.545Z,8.3
2019-03-06T08:50:17.570Z,11.5
2019-03-06T08:55:17.566Z,6.7
2019-03-06T09:00:17.846Z,11.4
2019-03-06T09:05:17.953Z,12.9
2019-03-06T09:10:22.293Z,12.3
2019-03-06T09:15:31.754Z,6.6
2019-03-06T09:20:22.222Z,12.2
2019-03-06T09:25:16.770Z,11.4
2019-03-06T09:30:21.885Z,10.5
2019-03-06T09:35:17.240Z,9.9
2019-03-06T09:40:17.407Z,12.8
2019-03-06T09:45:17.642Z,10.2
2019-03-06T09:50:22.258Z,8
2019-03-06T09:55:17.686Z,10.7
2019-03-06T10:00:22.215Z,4.2
2019-03-06T10:05:16.684Z,9.7
2019-03-06T10:10:22.214Z,10.3
2019-03-06T10:15:18.197Z,12.2
2019-03-06T10:20:24.759Z,9
2019-03-06T10:25:16.752Z,5.1
2019-03-06T10:30:22.247Z,9.8
2019-03-06T10:35:16.969Z,9.4
2019-03-06T10:40:17.005Z,9.9
2019-03-06T10:45:22.022Z,8.5
2019-03-06T10:50:26.002Z,10.2
2019-03-06T10:55:17.188Z,6
2019-03-06T11:00:27.277Z,11.4
2019-03-06T11:05:17.052Z,10.2
2019-03-06T11:10:23.200Z,10
2019-03-06T11:15:17.456Z,11.8
2019-03-06T11:20:17.326Z,10.6
2019-03-06T11:25:22.369Z,9.6
2019-03-06T11:30:17.148Z,9.7
2019-03-06T11:35:34.135Z,8.9
2019-03-06T11:40:17.251Z,7.9
2019-03-06T11:45:16.683Z,10.1
2019-03-06T11:50:16.722Z,6.2
2019-03-06T11:55:22.765Z,10.4
2019-03-06T12:00:17.071Z,9.5
2019-03-06T12:05:17.202Z,9.8
2019-03-06T12:10:17.511Z,8.1
2019-03-06T12:15:18.847Z,8.6
2019-03-06T12:20:18.046Z,9.2
2019-03-06T12:25:17.036Z,8.7
2019-03-06T12:30:17.060Z,11.8
2019-03-06T12:35:17.055Z,9.4
2019-03-06T12:40:17.269Z,4.6
2019-03-06T12:45:22.714Z,8.7
2019-03-06T12:50:31.987Z,5.2
2019-03-06T12:55:17.144Z,7.8
2019-03-06T13:00:17.351Z,9.7
2019-03-06T13:05:17.327Z,7.4
2019-03-06T13:10:16.764Z,2.4
2019-03-06T13:15:21.832Z,7.7
2019-03-06T13:20:17.383Z,8.1
2019-03-06T13:25:18.359Z,6.1
2019-03-06T13:30:18.383Z,5.4
2019-03-06T13:35:17.601Z,5.5
2019-03-06T13:40:18.640Z,6.3
2019-03-06T13:45:17.446Z,7.2
2019-03-06T13:50:17.445Z,6.9
2019-03-06T13:55:22.377Z,2.4
2019-03-06T14:00:17.488Z,6.7
2019-03-06T14:05:17.445Z,7.3
2019-03-06T14:10:16.931Z,4.9
2019-03-06T14:15:17.972Z,5.8
2019-03-06T14:20:16.712Z,6.8
2019-03-06T14:25:17.088Z,4.6
2019-03-06T14:30:17.607Z,6.8
2019-03-06T14:35:17.791Z,5.3
2019-03-06T14:40:17.552Z,6.1
2019-03-06T14:45:20.874Z,4.4
2019-03-06T14:50:16.965Z,3.6
2019-03-06T14:55:16.987Z,5
2019-03-06T15:00:16.976Z,3.2
2019-03-06T15:05:18.069Z,0.5
2019-03-06T15:10:17.227Z,3.8
2019-03-06T15:15:17.575Z,5.1
2019-03-06T15:20:21.735Z,2.8
2019-03-06T15:25:16.864Z,2.9
2019-03-06T15:30:17.128Z,3.6
2019-03-06T15:35:17.363Z,3
2019-03-06T15:40:17.551Z,6
2019-03-06T15:45:27.531Z,15
2019-03-06T15:50:18.143Z,4.2
2019-03-06T15:55:17.070Z,2.2
2019-03-06T16:00:22.102Z,3.2
2019-03-06T16:05:17.149Z,3
2019-03-06T16:10:22.513Z,1.3
2019-03-06T16:15:19.647Z,5
2019-03-06T16:20:17.376Z,4
2019-03-06T16:25:16.799Z,1.1
2019-03-06T16:30:17.806Z,4.9
2019-03-06T16:35:23.699Z,5.3
2019-03-06T16:40:16.797Z,1.8
2019-03-06T16:45:17.425Z,3.6
2019-03-06T16:50:18.534Z,3.3
2019-03-06T16:55:16.747Z,4.6
2019-03-06T17:00:16.802Z,1.4
2019-03-06T17:05:16.743Z,5.4
2019-03-06T17:10:16.913Z,4.6
2019-03-06T17:15:27.375Z,4.3
2019-03-06T17:20:21.759Z,5
2019-03-06T17:25:17.113Z,4.3
2019-03-06T17:30:20.083Z,4.1
2019-03-06T17:35:17.119Z,5.3
2019-03-06T17:40:17.339Z,7.9
2019-03-06T17:45:27.036Z,6.2
2019-03-06T17:50:16.893Z,3
2019-03-06T17:55:17.035Z,1.1
2019-03-06T18:00:17.309Z,3.1
2019-03-06T18:05:22.603Z,4.2
2019-03-06T18:10:26.805Z,3.6
2019-03-06T18:15:17.044Z,3.7
2019-03-06T18:20:27.492Z,12.9
2019-03-06T18:25:22.853Z,5.4
2019-03-06T18:30:18.554Z,2
2019-03-06T18:35:22.131Z,1.5
2019-03-06T18:40:16.819Z,2.5
2019-03-06T18:45:17.283Z,2.8
2019-03-06T18:50:35.028Z,2.5
2019-03-06T18:55:20.193Z,2.7
2019-03-06T19:00:22.567Z,5.1
2019-03-06T19:05:17.114Z,5.1
2019-03-06T19:10:22.688Z,4.6
2019-03-06T19:15:17.386Z,5.5
2019-03-06T19:20:23.907Z,5.6
2019-03-06T19:25:16.973Z,4.1
2019-03-06T19:30:27.053Z,6.9
2019-03-06T19:35:23.951Z,4.2
2019-03-06T19:40:22.321Z,4.3
2019-03-06T19:45:17.512Z,5.1
2019-03-06T19:50:16.962Z,5.3
2019-03-06T19:55:17.583Z,3.7
2019-03-06T20:00:17.119Z,2.3
2019-03-06T20:05:22.437Z,3.3
2019-03-06T20:10:16.838Z,4
2019-03-06T20:15:16.798Z,4.6
2019-03-06T20:20:17.137Z,5.7
2019-03-06T20:25:17.591Z,5.5
2019-03-06T20:30:22.548Z,5.9
2019-03-06T20:35:16.866Z,5.5
2019-03-06T20:40:22.060Z,4.8
2019-03-06T20:45:22.474Z,1.8
2019-03-06T20:50:17.553Z,6.8
2019-03-06T20:55:16.812Z,5.9
2019-03-06T21:00:22.454Z,4.2
2019-03-06T21:05:16.623Z,5.6
2019-03-06T21:10:22.348Z,4.4
2019-03-06T21:15:22.230Z,4.6
2019-03-06T21:20:18.870Z,4.5
2019-03-06T21:25:22.477Z,3.8
2019-03-06T21:30:19.833Z,4.4
2019-03-06T21:35:22.419Z,4.6
2019-03-06T21:40:19.900Z,4.5
2019-03-06T21:45:22.381Z,2
2019-03-06T21:50:22.385Z,4.1
2019-03-06T21:55:22.435Z,2.7
2019-03-06T22:00:17.095Z,4.2
2019-03-06T22:05:22.194Z,3.4
2019-03-06T22:10:17.384Z,3.9
2019-03-06T22:15:23.669Z,5.2
2019-03-06T22:20:37.341Z,5
2019-03-06T22:25:21.764Z,3.3
2019-03-06T22:30:22.790Z,2.2
2019-03-06T22:35:18.151Z,3.2
2019-03-06T22:40:17.453Z,4.5
2019-03-06T22:45:27.462Z,5.2
2019-03-06T22:50:26.977Z,5.1
2019-03-06T22:55:23.410Z,3.9
2019-03-06T23:00:21.900Z,1.5
2019-03-06T23:05:22.255Z,4.2
2019-03-06T23:10:23.188Z,3.5
2019-03-06T23:15:17.474Z,1.2
2019-03-06T23:20:16.916Z,4.4
2019-03-06T23:25:28.124Z,1
2019-03-06T23:30:17.622Z,5.9
2019-03-06T23:35:17.053Z,4.8
2019-03-06T23:40:17.927Z,3.6
2019-03-06T23:45:22.360Z,4.5
2019-03-06T23:50:16.854Z,2.2
2019-03-06T23:55:16.800Z,4
